Time;durP1;ratioP1;P1;durP2;ratioP2;P2;SDS_P1;SDS_P2;PMS_P1;PMS_P2;Temp;Humidity;BMP_temperature;BMP_pressure;BME280_temperature;BME280_humidity;BME280_pressure;Samples;Min_cycle;Max_cycle;Signal;HPM_P1;HPM_P2
2021/08/02 00:00:43;;;;;;;9.00;1.02;;;;;;;;;;4996278;28;20041;-59
2021/08/02 00:03:13;;;;;;;11.35;1.25;;;;;;;;;;4981588;28;20057;-60
2021/08/02 00:05:45;;;;;;;2.75;1.33;;;;;;;;;;4982411;28;20049;-60
2021/08/02 00:08:18;;;;;;;3.42;1.00;;;;;;;;;;4992132;28;20092;-60
2021/08/02 00:10:47;;;;;;;2.72;1.50;;;;;;;;;;4988920;28;20044;-60
2021/08/02 00:13:15;;;;;;;2.72;1.30;;;;;;;;;;4978127;28;20101;-59
2021/08/02 00:15:47;;;;;;;6.13;1.23;;;;;;;;;;4981481;28;20028;-60
2021/08/02 00:18:17;;;;;;;2.28;1.25;;;;;;;;;;4977680;28;20038;-59
2021/08/02 00:20:45;;;;;;;3.35;1.00;;;;;;;;;;4993837;28;20042;-60
2021/08/02 00:23:10;;;;;;;7.63;1.52;;;;;;;;;;4980825;28;20383;-59
2021/08/02 00:25:41;;;;;;;4.80;1.10;;;;;;;;;;4992619;28;20037;-59
2021/08/02 00:28:06;;;;;;;5.15;1.20;;;;;;;;;;4985092;28;20042;-60
2021/08/02 00:30:34;;;;;;;3.00;1.42;;;;;;;;;;4992648;28;20587;-59
2021/08/02 00:33:02;;;;;;;5.32;1.20;;;;;;;;;;4984572;28;20160;-59
2021/08/02 00:35:31;;;;;;;2.45;0.95;;;;;;;;;;4993398;28;20031;-59
2021/08/02 00:37:56;;;;;;;3.40;1.40;;;;;;;;;;4994371;28;20401;-59
2021/08/02 00:40:33;;;;;;;1.48;1.38;;;;;;;;;;4986668;28;20038;-59
2021/08/02 00:43:18;;;;;;;8.50;1.38;;;;;;;;;;4975669;28;20054;-59
2021/08/02 00:45:48;;;;;;;3.13;1.23;;;;;;;;;;4979704;28;20436;-59
2021/08/02 00:48:20;;;;;;;7.85;1.27;;;;;;;;;;4980387;28;20484;-59
2021/08/02 00:50:49;;;;;;;2.45;1.50;;;;;;;;;;4980102;28;20466;-59
2021/08/02 00:53:20;;;;;;;5.97;1.35;;;;;;;;;;4977561;28;20034;-59
2021/08/02 00:55:49;;;;;;;14.07;1.60;;;;;;;;;;4980804;28;20041;-60
2021/08/02 00:58:17;;;;;;;4.50;1.40;;;;;;;;;;4980556;28;20049;-60
2021/08/02 01:00:43;;;;;;;8.18;1.60;;;;;;;;;;4994123;28;20080;-60
2021/08/02 01:03:11;;;;;;;3.28;1.35;;;;;;;;;;4980804;28;20034;-60
2021/08/02 01:05:44;;;;;;;2.13;1.10;;;;;;;;;;4986770;28;20046;-60
2021/08/02 01:08:22;;;;;;;6.25;1.55;;;;;;;;;;4975761;28;20030;-60
2021/08/02 01:10:53;;;;;;;6.80;1.48;;;;;;;;;;4978129;28;20188;-60
2021/08/02 01:13:21;;;;;;;4.38;1.60;;;;;;;;;;4975974;28;20026;-59
2021/08/02 01:15:50;;;;;;;3.92;1.30;;;;;;;;;;4978668;28;21564;-60
2021/08/02 01:18:20;;;;;;;11.27;1.90;;;;;;;;;;4979617;28;20030;-60
2021/08/02 01:20:47;;;;;;;4.75;1.25;;;;;;;;;;4978828;28;20197;-60
2021/08/02 01:23:14;;;;;;;3.97;1.63;;;;;;;;;;4978189;28;20037;-60
2021/08/02 01:25:42;;;;;;;6.97;1.75;;;;;;;;;;4981947;28;20034;-59
2021/08/02 01:28:12;;;;;;;5.40;1.73;;;;;;;;;;4992647;28;20064;-59
2021/08/02 01:30:41;;;;;;;5.53;1.60;;;;;;;;;;4979949;28;20101;-59
2021/08/02 01:33:06;;;;;;;4.43;1.70;;;;;;;;;;4979059;28;20062;-60
2021/08/02 01:35:38;;;;;;;4.57;1.38;;;;;;;;;;4988735;28;20034;-60
2021/08/02 01:38:06;;;;;;;6.53;2.00;;;;;;;;;;4978317;28;20081;-59
2021/08/02 01:40:34;;;;;;;6.80;1.77;;;;;;;;;;4977481;28;20128;-59
2021/08/02 01:43:06;;;;;;;5.13;1.73;;;;;;;;;;4992367;28;20038;-60
2021/08/02 01:45:53;;;;;;;3.53;1.67;;;;;;;;;;4994675;28;20038;-60
2021/08/02 01:48:21;;;;;;;4.45;1.65;;;;;;;;;;4978611;28;20088;-60
2021/08/02 01:50:49;;;;;;;5.82;2.22;;;;;;;;;;4979133;28;20097;-60
2021/08/02 01:53:26;;;;;;;4.32;1.70;;;;;;;;;;4975880;28;20114;-60
2021/08/02 01:55:58;;;;;;;8.70;1.98;;;;;;;;;;4991912;28;20034;-60
2021/08/02 01:58:26;;;;;;;4.25;1.55;;;;;;;;;;4977970;28;20053;-60
2021/08/02 02:00:54;;;;;;;3.13;1.80;;;;;;;;;;4967039;28;20108;-59
2021/08/02 02:03:20;;;;;;;7.50;2.10;;;;;;;;;;4979033;28;20041;-60
2021/08/02 02:05:51;;;;;;;8.23;1.58;;;;;;;;;;4979319;28;20029;-59
2021/08/02 02:08:18;;;;;;;6.22;1.85;;;;;;;;;;4989184;28;20033;-60
2021/08/02 02:10:54;;;;;;;5.03;2.03;;;;;;;;;;4969358;28;20041;-59
2021/08/02 02:13:34;;;;;;;3.72;1.55;;;;;;;;;;4976279;28;20025;-60
2021/08/02 02:16:01;;;;;;;6.82;1.90;;;;;;;;;;4979244;28;20041;-59
2021/08/02 02:18:31;;;;;;;4.00;1.70;;;;;;;;;;4977782;28;20164;-59
2021/08/02 02:20:58;;;;;;;9.45;1.73;;;;;;;;;;4979518;28;20056;-60
2021/08/02 02:23:31;;;;;;;8.85;1.58;;;;;;;;;;4976127;28;20018;-59
2021/08/02 02:25:56;;;;;;;9.00;1.60;;;;;;;;;;4991945;28;20073;-61
2021/08/02 02:28:27;;;;;;;12.30;1.60;;;;;;;;;;4961607;28;20568;-59
2021/08/02 02:30:58;;;;;;;4.13;1.10;;;;;;;;;;4979487;28;20690;-60
2021/08/02 02:33:24;;;;;;;8.95;1.55;;;;;;;;;;4979667;28;20128;-59
2021/08/02 02:35:52;;;;;;;4.43;1.20;;;;;;;;;;4991499;28;20041;-60
2021/08/02 02:38:19;;;;;;;8.27;1.58;;;;;;;;;;4977420;28;20124;-60
2021/08/02 02:40:45;;;;;;;2.92;1.15;;;;;;;;;;4974722;28;20555;-60
2021/08/02 02:43:16;;;;;;;10.15;1.85;;;;;;;;;;4978810;28;20045;-59
2021/08/02 02:45:50;;;;;;;3.13;1.13;;;;;;;;;;4979101;28;20029;-59
2021/08/02 02:48:16;;;;;;;2.53;0.93;;;;;;;;;;4966386;28;20038;-59
2021/08/02 02:50:44;;;;;;;2.72;1.10;;;;;;;;;;4979017;28;20030;-60
2021/08/02 02:53:11;;;;;;;1.13;0.88;;;;;;;;;;4975847;28;20034;-59
2021/08/02 02:55:43;;;;;;;3.70;0.80;;;;;;;;;;4994649;28;20030;-59
2021/08/02 02:58:11;;;;;;;6.53;0.85;;;;;;;;;;4977886;28;20417;-60
2021/08/02 03:00:38;;;;;;;3.72;0.90;;;;;;;;;;4976336;28;20030;-60
2021/08/02 03:03:08;;;;;;;6.63;0.93;;;;;;;;;;4974151;28;20053;-60
2021/08/02 03:05:38;;;;;;;13.23;1.23;;;;;;;;;;4980051;28;20025;-60
2021/08/02 03:08:07;;;;;;;2.83;0.80;;;;;;;;;;4977621;28;20141;-60
2021/08/02 03:10:38;;;;;;;5.20;0.90;;;;;;;;;;4981245;28;20038;-60
2021/08/02 03:13:06;;;;;;;7.22;1.10;;;;;;;;;;4995154;28;20034;-59
2021/08/02 03:15:34;;;;;;;3.92;0.80;;;;;;;;;;4983797;28;20022;-60
2021/08/02 03:17:59;;;;;;;1.77;1.20;;;;;;;;;;4985586;28;20772;-60
2021/08/02 03:20:25;;;;;;;3.22;1.38;;;;;;;;;;4981196;28;20033;-59
2021/08/02 03:23:04;;;;;;;8.30;1.20;;;;;;;;;;4982237;28;20061;-60
2021/08/02 03:25:32;;;;;;;6.95;1.52;;;;;;;;;;4982773;28;20033;-60
2021/08/02 03:28:02;;;;;;;4.95;1.05;;;;;;;;;;4994823;28;20541;-60
2021/08/02 03:30:30;;;;;;;6.47;0.80;;;;;;;;;;4982019;28;20052;-60
2021/08/02 03:32:59;;;;;;;6.40;1.17;;;;;;;;;;4981998;28;20042;-60
2021/08/02 03:35:27;;;;;;;5.78;0.95;;;;;;;;;;4995461;28;20069;-60
2021/08/02 03:37:55;;;;;;;4.40;0.77;;;;;;;;;;4984961;28;20421;-60
2021/08/02 03:40:28;;;;;;;2.72;0.63;;;;;;;;;;4985936;28;20492;-60
2021/08/02 03:42:54;;;;;;;5.20;1.27;;;;;;;;;;4981960;28;20520;-60
2021/08/02 03:45:20;;;;;;;3.88;1.00;;;;;;;;;;4978884;28;20054;-60
2021/08/02 03:47:45;;;;;;;6.13;1.20;;;;;;;;;;4978017;28;20661;-60
2021/08/02 03:50:16;;;;;;;3.58;0.77;;;;;;;;;;4983183;28;20046;-59
2021/08/02 03:52:41;;;;;;;1.35;0.90;;;;;;;;;;4977255;28;20030;-60
2021/08/02 03:55:07;;;;;;;6.35;1.02;;;;;;;;;;4983232;28;20990;-60
2021/08/02 03:57:35;;;;;;;2.17;0.98;;;;;;;;;;4978272;28;20688;-60
2021/08/02 04:00:03;;;;;;;2.72;1.13;;;;;;;;;;4981330;28;20528;-60
2021/08/02 04:02:29;;;;;;;1.88;0.82;;;;;;;;;;4981682;28;20738;-59
2021/08/02 04:04:54;;;;;;;3.20;0.93;;;;;;;;;;4981935;28;20041;-59
2021/08/02 04:07:24;;;;;;;2.45;1.13;;;;;;;;;;4981077;28;20061;-60
2021/08/02 04:09:52;;;;;;;4.13;1.20;;;;;;;;;;4995898;28;20026;-59
2021/08/02 04:12:20;;;;;;;3.60;1.25;;;;;;;;;;4993801;28;20044;-59
2021/08/02 04:14:45;;;;;;;3.08;1.00;;;;;;;;;;4983099;28;21380;-59
2021/08/02 04:17:11;;;;;;;4.13;1.20;;;;;;;;;;4993211;28;20022;-59
2021/08/02 04:19:38;;;;;;;5.40;1.13;;;;;;;;;;4996454;28;20039;-59
2021/08/02 04:22:04;;;;;;;4.00;1.40;;;;;;;;;;4992413;28;20050;-59
2021/08/02 04:24:32;;;;;;;3.35;1.70;;;;;;;;;;4982261;28;20189;-59
2021/08/02 04:27:02;;;;;;;3.95;1.10;;;;;;;;;;4985855;28;20496;-59
2021/08/02 04:29:28;;;;;;;9.30;2.10;;;;;;;;;;4992220;28;20034;-60
2021/08/02 04:31:55;;;;;;;4.43;1.08;;;;;;;;;;4995301;28;20097;-59
2021/08/02 04:34:23;;;;;;;2.80;1.10;;;;;;;;;;4979343;28;20129;-60
2021/08/02 04:36:48;;;;;;;6.57;1.80;;;;;;;;;;4992366;28;20174;-59
2021/08/02 04:39:14;;;;;;;2.15;0.80;;;;;;;;;;4980275;28;22134;-59
2021/08/02 04:41:39;;;;;;;5.95;1.00;;;;;;;;;;4979570;28;20076;-59
2021/08/02 04:44:09;;;;;;;5.25;1.35;;;;;;;;;;4976604;28;20133;-59
2021/08/02 04:46:35;;;;;;;8.27;1.20;;;;;;;;;;4981226;28;20069;-61
2021/08/02 04:49:04;;;;;;;3.28;1.05;;;;;;;;;;4978747;28;20952;-60
2021/08/02 04:51:34;;;;;;;4.10;1.45;;;;;;;;;;4976699;28;20161;-60
2021/08/02 04:54:02;;;;;;;5.07;1.50;;;;;;;;;;4968325;28;20065;-60
2021/08/02 04:56:27;;;;;;;3.55;1.08;;;;;;;;;;4992866;28;20048;-60
2021/08/02 04:59:00;;;;;;;3.22;1.40;;;;;;;;;;4962955;28;20039;-59
2021/08/02 05:01:25;;;;;;;2.47;1.27;;;;;;;;;;4979842;28;20044;-60
2021/08/02 05:03:51;;;;;;;2.33;1.50;;;;;;;;;;4978462;28;20030;-60
2021/08/02 05:06:18;;;;;;;8.90;1.80;;;;;;;;;;4984410;28;20022;-60
2021/08/02 05:08:46;;;;;;;4.70;1.27;;;;;;;;;;4978320;28;20740;-60
2021/08/02 05:11:14;;;;;;;9.40;1.48;;;;;;;;;;4980161;28;20049;-59
2021/08/02 05:13:39;;;;;;;6.80;1.50;;;;;;;;;;4979831;28;20149;-59
2021/08/02 05:16:10;;;;;;;4.57;1.30;;;;;;;;;;4992561;28;20026;-60
2021/08/02 05:18:40;;;;;;;6.30;1.25;;;;;;;;;;4980127;28;20038;-60
2021/08/02 05:21:05;;;;;;;6.03;1.50;;;;;;;;;;4992061;28;20112;-60
2021/08/02 05:23:34;;;;;;;3.03;0.85;;;;;;;;;;4991487;28;21000;-62
2021/08/02 05:26:02;;;;;;;6.07;1.08;;;;;;;;;;4980257;28;20026;-60
2021/08/02 05:28:30;;;;;;;6.15;1.00;;;;;;;;;;4975868;28;20054;-60
2021/08/02 05:30:55;;;;;;;3.10;0.85;;;;;;;;;;4980538;28;20076;-61
2021/08/02 05:33:23;;;;;;;5.63;1.05;;;;;;;;;;4979831;28;20060;-61
2021/08/02 05:35:48;;;;;;;1.00;0.65;;;;;;;;;;4979858;28;20489;-61
2021/08/02 05:38:16;;;;;;;3.83;1.10;;;;;;;;;;4975921;28;20032;-63
2021/08/02 05:40:41;;;;;;;5.50;0.98;;;;;;;;;;4980235;28;21189;-61
2021/08/02 05:43:07;;;;;;;4.25;0.82;;;;;;;;;;4979731;28;20090;-61
2021/08/02 05:45:38;;;;;;;3.33;0.70;;;;;;;;;;4992420;28;20122;-61
2021/08/02 05:48:08;;;;;;;3.78;0.77;;;;;;;;;;4977733;28;20112;-61
2021/08/02 05:50:34;;;;;;;4.95;0.90;;;;;;;;;;4976684;28;20134;-61
2021/08/02 05:52:59;;;;;;;6.15;0.70;;;;;;;;;;4961751;28;21313;-61
2021/08/02 05:55:27;;;;;;;2.78;0.65;;;;;;;;;;4995123;28;20116;-61
2021/08/02 05:57:52;;;;;;;3.03;0.88;;;;;;;;;;4980738;28;20052;-60
2021/08/02 06:00:18;;;;;;;6.47;0.90;;;;;;;;;;4990177;28;20056;-61
2021/08/02 06:02:48;;;;;;;3.15;0.80;;;;;;;;;;4979244;28;20219;-60
2021/08/02 06:05:13;;;;;;;3.95;1.60;;;;;;;;;;4977079;28;20043;-62
2021/08/02 06:07:42;;;;;;;5.20;1.00;;;;;;;;;;4978653;28;20042;-62
2021/08/02 06:10:08;;;;;;;6.28;0.73;;;;;;;;;;4991193;28;20057;-61
2021/08/02 06:12:33;;;;;;;5.70;0.70;;;;;;;;;;4976828;28;20021;-61
2021/08/02 06:15:03;;;;;;;4.15;0.90;;;;;;;;;;4973969;28;20089;-61
2021/08/02 06:17:29;;;;;;;3.75;1.00;;;;;;;;;;4974893;28;20034;-61
2021/08/02 06:19:59;;;;;;;7.13;1.05;;;;;;;;;;4978591;28;20032;-59
2021/08/02 06:22:28;;;;;;;3.17;0.47;;;;;;;;;;4990337;28;20038;-61
2021/08/02 06:24:56;;;;;;;5.55;0.95;;;;;;;;;;4985602;28;20053;-61
2021/08/02 06:27:21;;;;;;;10.02;1.15;;;;;;;;;;4990170;28;20131;-62
2021/08/02 06:29:49;;;;;;;2.50;0.40;;;;;;;;;;4993135;28;20030;-61
2021/08/02 06:32:14;;;;;;;3.40;0.95;;;;;;;;;;4979660;28;20034;-61
2021/08/02 06:34:40;;;;;;;1.23;0.55;;;;;;;;;;4990131;28;20042;-60
2021/08/02 06:37:05;;;;;;;2.42;0.40;;;;;;;;;;4979053;28;20034;-60
2021/08/02 06:39:31;;;;;;;4.47;0.70;;;;;;;;;;4974709;28;20696;-61
2021/08/02 06:41:58;;;;;;;1.75;0.40;;;;;;;;;;4974019;28;20111;-60
2021/08/02 06:44:26;;;;;;;1.60;0.60;;;;;;;;;;4979935;28;20064;-62
2021/08/02 06:46:52;;;;;;;5.78;0.70;;;;;;;;;;4964577;28;20710;-60
2021/08/02 06:49:18;;;;;;;2.28;0.55;;;;;;;;;;4982568;28;20971;-60
2021/08/02 06:51:46;;;;;;;3.63;0.65;;;;;;;;;;4982093;28;20065;-60
2021/08/02 06:54:11;;;;;;;1.85;0.77;;;;;;;;;;4980953;28;20129;-60
2021/08/02 06:56:41;;;;;;;1.13;0.50;;;;;;;;;;4983666;28;20220;-62
2021/08/02 06:59:06;;;;;;;3.65;0.75;;;;;;;;;;4977399;28;20042;-61
2021/08/02 07:01:31;;;;;;;1.80;0.50;;;;;;;;;;4968014;28;22060;-61
2021/08/02 07:03:57;;;;;;;4.47;0.55;;;;;;;;;;4982455;28;20030;-61
2021/08/02 07:06:25;;;;;;;4.78;0.93;;;;;;;;;;4961698;28;20948;-60
2021/08/02 07:08:51;;;;;;;3.83;0.73;;;;;;;;;;4985959;28;20050;-63
2021/08/02 07:11:17;;;;;;;1.50;0.50;;;;;;;;;;4995158;28;20563;-61
2021/08/02 07:13:45;;;;;;;1.02;0.38;;;;;;;;;;4979635;28;20053;-59
2021/08/02 07:16:11;;;;;;;4.05;0.38;;;;;;;;;;4994681;28;20107;-60
2021/08/02 07:18:39;;;;;;;0.77;0.30;;;;;;;;;;4996368;28;20489;-59
2021/08/02 07:21:04;;;;;;;1.73;0.50;;;;;;;;;;4982339;28;20151;-62
2021/08/02 07:23:32;;;;;;;3.92;0.70;;;;;;;;;;4993068;28;20420;-61
2021/08/02 07:25:57;;;;;;;3.40;0.82;;;;;;;;;;4996071;28;20137;-61
2021/08/02 07:28:28;;;;;;;1.95;0.38;;;;;;;;;;4980468;28;20041;-61
2021/08/02 07:30:53;;;;;;;4.72;0.50;;;;;;;;;;4992394;28;20033;-61
2021/08/02 07:33:19;;;;;;;1.85;0.65;;;;;;;;;;4982616;28;20104;-61
2021/08/02 07:35:45;;;;;;;1.15;0.60;;;;;;;;;;4981708;28;20057;-62
2021/08/02 07:38:12;;;;;;;1.73;0.30;;;;;;;;;;4978230;28;20069;-61
2021/08/02 07:40:40;;;;;;;2.05;0.30;;;;;;;;;;4988725;28;20042;-62
2021/08/02 07:43:06;;;;;;;1.77;0.60;;;;;;;;;;4996359;28;20038;-59
2021/08/02 07:45:31;;;;;;;4.18;0.52;;;;;;;;;;4981717;28;20104;-60
2021/08/02 07:48:01;;;;;;;3.45;0.40;;;;;;;;;;4980682;28;20030;-60
2021/08/02 07:50:27;;;;;;;1.08;0.55;;;;;;;;;;4993346;28;20516;-63
2021/08/02 07:52:54;;;;;;;3.03;0.47;;;;;;;;;;4977286;28;20022;-63
2021/08/02 07:55:23;;;;;;;0.77;0.45;;;;;;;;;;4985709;28;20040;-61
2021/08/02 07:57:48;;;;;;;6.78;0.50;;;;;;;;;;4976087;28;20030;-61
2021/08/02 08:00:17;;;;;;;2.08;0.30;;;;;;;;;;4980561;28;20036;-61
2021/08/02 08:02:45;;;;;;;0.20;0.20;;;;;;;;;;4993012;28;20027;-61
2021/08/02 08:05:12;;;;;;;4.00;0.40;;;;;;;;;;4981133;28;20138;-61
2021/08/02 08:07:45;;;;;;;0.45;0.20;;;;;;;;;;4981387;28;20056;-61
2021/08/02 08:10:11;;;;;;;2.53;0.45;;;;;;;;;;4979958;28;20053;-59
2021/08/02 08:12:41;;;;;;;4.30;0.47;;;;;;;;;;4986223;28;20022;-60
2021/08/02 08:15:07;;;;;;;1.60;0.50;;;;;;;;;;4993925;28;20030;-60
2021/08/02 08:17:38;;;;;;;0.98;0.43;;;;;;;;;;4996277;28;20018;-61
2021/08/02 08:20:06;;;;;;;3.00;0.40;;;;;;;;;;4982633;28;20027;-60
2021/08/02 08:22:36;;;;;;;0.93;0.38;;;;;;;;;;4974870;28;20025;-61
2021/08/02 08:25:04;;;;;;;4.65;0.50;;;;;;;;;;4980410;28;20109;-61
2021/08/02 08:27:30;;;;;;;0.77;0.17;;;;;;;;;;4981299;28;20641;-61
2021/08/02 08:29:56;;;;;;;1.73;0.60;;;;;;;;;;4981235;28;20038;-61
2021/08/02 08:32:27;;;;;;;3.40;0.82;;;;;;;;;;4981002;28;20121;-60
2021/08/02 08:34:55;;;;;;;6.32;0.82;;;;;;;;;;4993180;28;20136;-61
2021/08/02 08:37:23;;;;;;;2.70;0.52;;;;;;;;;;4980270;28;20030;-61
2021/08/02 08:39:48;;;;;;;0.70;0.32;;;;;;;;;;4992792;28;20375;-60
2021/08/02 08:42:19;;;;;;;2.75;0.57;;;;;;;;;;4981530;28;20038;-60
2021/08/02 08:44:47;;;;;;;2.78;0.40;;;;;;;;;;4981351;28;22039;-60
2021/08/02 08:47:15;;;;;;;3.90;0.68;;;;;;;;;;4979331;28;20061;-60
2021/08/02 08:49:43;;;;;;;0.80;0.35;;;;;;;;;;4980292;28;20038;-60
2021/08/02 08:52:09;;;;;;;1.67;0.43;;;;;;;;;;4991638;28;20167;-60
2021/08/02 08:54:42;;;;;;;1.83;0.45;;;;;;;;;;4980696;28;20030;-59
2021/08/02 08:57:11;;;;;;;3.63;0.70;;;;;;;;;;4980848;28;20085;-59
2021/08/02 08:59:48;;;;;;;4.95;0.50;;;;;;;;;;4991777;28;20044;-60
2021/08/02 09:02:22;;;;;;;2.10;0.28;;;;;;;;;;4991980;28;20050;-59
2021/08/02 09:04:59;;;;;;;2.28;0.47;;;;;;;;;;4979610;28;20046;-59
2021/08/02 09:07:31;;;;;;;1.75;0.47;;;;;;;;;;4991486;28;20026;-59
2021/08/02 09:10:00;;;;;;;3.97;0.57;;;;;;;;;;4980001;28;20033;-59
2021/08/02 09:12:25;;;;;;;3.03;0.30;;;;;;;;;;4979667;28;20026;-59
2021/08/02 09:14:55;;;;;;;3.78;0.82;;;;;;;;;;4979209;28;20920;-60
2021/08/02 09:17:36;;;;;;;1.15;0.35;;;;;;;;;;4994051;28;20195;-61
2021/08/02 09:20:06;;;;;;;1.48;0.75;;;;;;;;;;4979235;28;20034;-60
2021/08/02 09:22:33;;;;;;;5.43;0.57;;;;;;;;;;4995017;28;21172;-60
2021/08/02 09:25:12;;;;;;;6.32;0.57;;;;;;;;;;4979280;28;20046;-62
2021/08/02 09:27:41;;;;;;;0.60;0.38;;;;;;;;;;4979506;28;20109;-61
2021/08/02 09:30:17;;;;;;;6.00;0.68;;;;;;;;;;4980692;28;20156;-61
2021/08/02 09:32:45;;;;;;;3.67;0.63;;;;;;;;;;4979790;28;20041;-61
2021/08/02 09:35:24;;;;;;;2.15;0.65;;;;;;;;;;4981271;28;20062;-60
2021/08/02 09:37:58;;;;;;;1.52;0.50;;;;;;;;;;4964802;28;20036;-60
2021/08/02 09:40:26;;;;;;;3.05;0.45;;;;;;;;;;4992751;28;20034;-62
2021/08/02 09:42:57;;;;;;;2.55;0.40;;;;;;;;;;4975802;28;20106;-60
2021/08/02 09:45:25;;;;;;;4.32;0.73;;;;;;;;;;4984025;28;20034;-60
2021/08/02 09:47:51;;;;;;;0.95;0.30;;;;;;;;;;4994138;28;20041;-61
2021/08/02 09:50:29;;;;;;;3.72;0.57;;;;;;;;;;4977135;28;20033;-61
2021/08/02 09:52:57;;;;;;;3.90;0.88;;;;;;;;;;4979695;28;20030;-60
2021/08/02 09:55:22;;;;;;;2.38;0.65;;;;;;;;;;4979114;28;20959;-61
2021/08/02 09:57:51;;;;;;;4.68;0.40;;;;;;;;;;4979530;28;20050;-61
2021/08/02 10:00:19;;;;;;;2.75;0.60;;;;;;;;;;4980156;28;20026;-61
2021/08/02 10:02:48;;;;;;;3.47;0.60;;;;;;;;;;4992795;28;20912;-60
2021/08/02 10:05:20;;;;;;;2.03;0.63;;;;;;;;;;4980633;28;20445;-60
2021/08/02 10:07:46;;;;;;;6.43;0.73;;;;;;;;;;4965725;28;21615;-60
2021/08/02 10:10:16;;;;;;;6.55;0.60;;;;;;;;;;4979003;28;20544;-61
2021/08/02 10:12:43;;;;;;;1.00;0.40;;;;;;;;;;4978625;28;20943;-60
2021/08/02 10:15:12;;;;;;;3.70;0.65;;;;;;;;;;4978644;28;20026;-60
2021/08/02 10:17:40;;;;;;;3.28;0.60;;;;;;;;;;4978648;28;20042;-60
2021/08/02 10:20:15;;;;;;;5.32;0.80;;;;;;;;;;4994728;28;20030;-60
2021/08/02 10:22:44;;;;;;;2.13;0.60;;;;;;;;;;4984028;28;20038;-61
2021/08/02 10:25:12;;;;;;;4.47;0.70;;;;;;;;;;4980736;28;20030;-62
2021/08/02 10:27:41;;;;;;;2.60;0.43;;;;;;;;;;4982882;28;20026;-60
2021/08/02 10:30:19;;;;;;;2.83;0.40;;;;;;;;;;4995071;28;20090;-60
2021/08/02 10:32:50;;;;;;;1.70;0.32;;;;;;;;;;4994785;28;20478;-60
2021/08/02 10:35:18;;;;;;;0.40;0.25;;;;;;;;;;4989020;28;20030;-61
2021/08/02 10:37:44;;;;;;;2.05;0.40;;;;;;;;;;4982096;28;20112;-61
2021/08/02 10:40:12;;;;;;;3.20;0.60;;;;;;;;;;4982752;28;20033;-61
2021/08/02 10:42:47;;;;;;;2.00;0.50;;;;;;;;;;4989912;28;20038;-61
2021/08/02 10:45:13;;;;;;;3.40;0.50;;;;;;;;;;4987299;28;20677;-62
2021/08/02 10:47:41;;;;;;;2.00;0.20;;;;;;;;;;4982715;28;20030;-60
2021/08/02 10:50:08;;;;;;;2.22;0.47;;;;;;;;;;4983822;28;20034;-62
2021/08/02 10:52:36;;;;;;;1.27;0.20;;;;;;;;;;4986518;28;20029;-61
2021/08/02 10:55:11;;;;;;;1.25;0.40;;;;;;;;;;4982119;28;20022;-62
2021/08/02 10:57:42;;;;;;;4.07;0.60;;;;;;;;;;4981530;28;20092;-62
2021/08/02 11:00:20;;;;;;;1.38;0.20;;;;;;;;;;4996773;28;20386;-61
2021/08/02 11:02:50;;;;;;;1.38;0.38;;;;;;;;;;4982078;28;20018;-60
2021/08/02 11:05:20;;;;;;;3.17;0.30;;;;;;;;;;4997114;28;20814;-64
2021/08/02 11:07:49;;;;;;;1.35;0.47;;;;;;;;;;4980599;28;20117;-61
2021/08/02 11:10:16;;;;;;;1.13;0.20;;;;;;;;;;4986033;28;20027;-62
2021/08/02 11:12:44;;;;;;;0.80;0.30;;;;;;;;;;4979892;28;20037;-61
2021/08/02 11:15:09;;;;;;;2.90;0.52;;;;;;;;;;4968320;28;20084;-62
2021/08/02 11:17:39;;;;;;;2.20;0.30;;;;;;;;;;4962838;28;20052;-61
2021/08/02 11:20:13;;;;;;;1.45;0.40;;;;;;;;;;4996855;28;20030;-61
2021/08/02 11:22:51;;;;;;;0.85;0.30;;;;;;;;;;4978142;28;20031;-63
2021/08/02 11:25:24;;;;;;;1.17;0.43;;;;;;;;;;4996640;28;20058;-60
2021/08/02 11:27:50;;;;;;;1.55;0.50;;;;;;;;;;4971808;28;20136;-62
2021/08/02 11:30:18;;;;;;;2.20;0.40;;;;;;;;;;4996113;28;20032;-61
2021/08/02 11:32:44;;;;;;;3.03;0.47;;;;;;;;;;4993428;28;20034;-62
2021/08/02 11:35:12;;;;;;;1.85;0.45;;;;;;;;;;4986059;28;20034;-63
2021/08/02 11:37:38;;;;;;;2.13;0.40;;;;;;;;;;4981888;28;20026;-60
2021/08/02 11:40:08;;;;;;;3.88;0.70;;;;;;;;;;4994302;28;20049;-62
2021/08/02 11:42:34;;;;;;;0.20;0.20;;;;;;;;;;4980358;28;20037;-61
2021/08/02 11:45:00;;;;;;;0.10;0.10;;;;;;;;;;4996705;28;20088;-60
2021/08/02 11:47:27;;;;;;;0.80;0.10;;;;;;;;;;4985240;28;20041;-61
2021/08/02 11:49:54;;;;;;;0.57;0.15;;;;;;;;;;4996242;28;20033;-61
2021/08/02 11:52:20;;;;;;;0.90;0.20;;;;;;;;;;4968981;28;20996;-61
2021/08/02 11:54:56;;;;;;;0.52;0.20;;;;;;;;;;4996320;28;20034;-62
2021/08/02 11:57:24;;;;;;;3.17;0.40;;;;;;;;;;4981915;28;20042;-61
2021/08/02 11:59:57;;;;;;;1.90;0.50;;;;;;;;;;4981714;28;20042;-61
2021/08/02 12:02:32;;;;;;;1.02;0.20;;;;;;;;;;4992032;28;20030;-62
2021/08/02 12:04:58;;;;;;;2.30;0.20;;;;;;;;;;4980042;28;20062;-62
2021/08/02 12:07:25;;;;;;;1.55;0.32;;;;;;;;;;4979591;28;20029;-61
2021/08/02 12:09:51;;;;;;;0.68;0.28;;;;;;;;;;4979480;28;20058;-62
2021/08/02 12:12:23;;;;;;;0.55;0.20;;;;;;;;;;4985479;28;20069;-60
2021/08/02 12:14:50;;;;;;;0.93;0.30;;;;;;;;;;4979908;28;20047;-60
2021/08/02 12:17:19;;;;;;;0.20;0.13;;;;;;;;;;4982012;28;20030;-60
2021/08/02 12:19:46;;;;;;;0.82;0.20;;;;;;;;;;4979221;28;20061;-61
2021/08/02 12:22:15;;;;;;;1.92;0.20;;;;;;;;;;4981108;28;20026;-61
2021/08/02 12:24:51;;;;;;;0.88;0.10;;;;;;;;;;4981868;28;20038;-62
2021/08/02 12:27:19;;;;;;;0.63;0.30;;;;;;;;;;4976963;28;20030;-61
2021/08/02 12:30:14;;;;;;;0.75;0.20;;;;;;;;;;4978926;28;20033;-61
2021/08/02 12:32:42;;;;;;;;;;;;;;;;;;4975413;28;20049;-60
2021/08/02 12:35:09;;;;;;;0.30;0.20;;;;;;;;;;4977337;28;20663;-60
2021/08/02 12:37:37;;;;;;;0.77;0.30;;;;;;;;;;4992125;28;20029;-62
2021/08/02 12:40:06;;;;;;;1.95;0.30;;;;;;;;;;4980536;28;20033;-61
2021/08/02 12:42:32;;;;;;;0.65;0.10;;;;;;;;;;4995617;28;20038;-61
2021/08/02 12:45:02;;;;;;;0.73;0.30;;;;;;;;;;4995616;28;20026;-61
2021/08/02 12:47:29;;;;;;;0.10;0.10;;;;;;;;;;4980557;28;20034;-60
2021/08/02 12:49:57;;;;;;;0.40;0.13;;;;;;;;;;4979068;28;20026;-62
2021/08/02 12:52:27;;;;;;;0.15;0.10;;;;;;;;;;4979903;28;21177;-62
2021/08/02 12:54:55;;;;;;;1.05;0.08;;;;;;;;;;4979216;28;20072;-61
2021/08/02 12:57:26;;;;;;;1.75;0.38;;;;;;;;;;4980082;28;20046;-61
2021/08/02 12:59:57;;;;;;;0.28;0.10;;;;;;;;;;4992356;28;20026;-61
2021/08/02 13:02:27;;;;;;;0.63;0.13;;;;;;;;;;4980284;28;20073;-60
2021/08/02 13:04:53;;;;;;;3.28;0.40;;;;;;;;;;4996098;28;20160;-61
2021/08/02 13:07:19;;;;;;;0.90;0.20;;;;;;;;;;4980572;28;20593;-61
2021/08/02 13:09:48;;;;;;;1.55;0.22;;;;;;;;;;4979167;28;20121;-61
2021/08/02 13:12:17;;;;;;;1.52;0.35;;;;;;;;;;4979459;28;22107;-61
2021/08/02 13:14:45;;;;;;;2.58;0.70;;;;;;;;;;4979703;28;20034;-63
2021/08/02 13:17:11;;;;;;;1.20;0.20;;;;;;;;;;4968292;28;20029;-61
2021/08/02 13:19:40;;;;;;;1.13;0.50;;;;;;;;;;4992447;28;20032;-60
2021/08/02 13:22:05;;;;;;;1.45;0.35;;;;;;;;;;4978540;28;20061;-60
2021/08/02 13:27:18;;;;;;;1.60;0.30;;;;;;;;;;4980027;28;20026;-62
2021/08/02 13:29:45;;;;;;;2.28;0.20;;;;;;;;;;4979431;28;20045;-62
2021/08/02 13:32:15;;;;;;;7.60;0.43;;;;;;;;;;4993024;28;20034;-61
2021/08/02 13:34:45;;;;;;;1.85;0.38;;;;;;;;;;4979612;28;20033;-61
2021/08/02 13:37:10;;;;;;;2.05;0.20;;;;;;;;;;4979578;28;21018;-60
2021/08/02 13:39:38;;;;;;;2.10;0.20;;;;;;;;;;4993407;28;20167;-59
2021/08/02 13:42:05;;;;;;;2.72;0.30;;;;;;;;;;4991919;28;20049;-62
2021/08/02 13:44:30;;;;;;;0.52;0.30;;;;;;;;;;4979225;28;20027;-60
2021/08/02 13:46:56;;;;;;;2.42;0.35;;;;;;;;;;4980153;28;20041;-61
2021/08/02 13:49:27;;;;;;;3.42;0.32;;;;;;;;;;4975745;28;20490;-61
2021/08/02 13:51:57;;;;;;;3.78;0.30;;;;;;;;;;4978611;28;20038;-61
2021/08/02 13:54:23;;;;;;;1.50;0.35;;;;;;;;;;4993350;28;20034;-62
2021/08/02 13:56:52;;;;;;;4.55;0.40;;;;;;;;;;4992893;28;20131;-59
2021/08/02 13:59:18;;;;;;;1.80;0.30;;;;;;;;;;4979001;28;20036;-60
2021/08/02 14:01:43;;;;;;;4.05;0.80;;;;;;;;;;4980320;28;20046;-59
2021/08/02 14:04:11;;;;;;;2.53;0.45;;;;;;;;;;4978614;28;20037;-61
2021/08/02 14:06:37;;;;;;;2.55;0.28;;;;;;;;;;4975831;28;20120;-61
2021/08/02 14:09:03;;;;;;;2.53;0.45;;;;;;;;;;4979201;28;20026;-61
2021/08/02 14:11:31;;;;;;;1.70;0.40;;;;;;;;;;4978481;28;20045;-61
2021/08/02 14:14:00;;;;;;;2.08;0.30;;;;;;;;;;4993600;28;20038;-62
2021/08/02 14:16:33;;;;;;;1.77;0.50;;;;;;;;;;4977791;28;20584;-61
2021/08/02 14:18:58;;;;;;;3.40;0.40;;;;;;;;;;4978755;28;20041;-61
2021/08/02 14:21:26;;;;;;;3.22;0.30;;;;;;;;;;4977590;28;20113;-60
2021/08/02 14:23:54;;;;;;;2.55;0.38;;;;;;;;;;4978429;28;20022;-61
2021/08/02 14:26:23;;;;;;;1.13;0.43;;;;;;;;;;4978656;28;20112;-61
2021/08/02 14:28:51;;;;;;;0.20;0.10;;;;;;;;;;4979714;28;20558;-61
2021/08/02 14:31:18;;;;;;;5.68;0.63;;;;;;;;;;4980620;28;20093;-61
2021/08/02 14:33:49;;;;;;;2.90;0.22;;;;;;;;;;4992844;28;20042;-61
2021/08/02 14:36:15;;;;;;;2.28;0.35;;;;;;;;;;4978600;28;20060;-60
2021/08/02 14:38:47;;;;;;;0.47;0.22;;;;;;;;;;4974847;28;20038;-61
2021/08/02 14:41:22;;;;;;;2.72;0.68;;;;;;;;;;4993275;28;20035;-61
2021/08/02 14:43:49;;;;;;;1.92;0.30;;;;;;;;;;4979052;28;20035;-62
2021/08/02 14:46:18;;;;;;;0.63;0.22;;;;;;;;;;4994219;28;20100;-61
2021/08/02 14:48:48;;;;;;;2.60;0.30;;;;;;;;;;4978781;28;20115;-60
2021/08/02 14:51:14;;;;;;;1.52;0.17;;;;;;;;;;4991853;28;20057;-60
2021/08/02 14:53:42;;;;;;;2.40;0.20;;;;;;;;;;4977999;28;20725;-60